sensor_id;sensor_type;location;lat;lon;timestamp;temperature;humidity
5930;DHT22;2990;48.746;9.236;2023-05-10T00:00:27;12.90;99.90
5930;DHT22;2990;48.746;9.236;2023-05-10T00:03:02;12.90;99.90
5930;DHT22;2990;48.746;9.236;2023-05-10T00:05:40;12.60;99.90
5930;DHT22;2990;48.746;9.236;2023-05-10T00:08:08;13.00;99.90
5930;DHT22;2990;48.746;9.236;2023-05-10T00:10:45;12.60;99.90
5930;DHT22;2990;48.746;9.236;2023-05-10T00:13:19;12.70;99.90
5930;DHT22;2990;48.746;9.236;2023-05-10T00:15:51;12.80;99.90
5930;DHT22;2990;48.746;9.236;2023-05-10T00:18:16;12.80;99.90
5930;DHT22;2990;48.746;9.236;2023-05-10T00:20:53;12.70;99.90
5930;DHT22;2990;48.746;9.236;2023-05-10T00:23:22;12.60;99.90
5930;DHT22;2990;48.746;9.236;2023-05-10T00:25:56;12.70;99.90
5930;DHT22;2990;48.746;9.236;2023-05-10T00:28:22;12.70;99.90
5930;DHT22;2990;48.746;9.236;2023-05-10T00:34:14;12.60;99.90
5930;DHT22;2990;48.746;9.236;2023-05-10T00:36:43;12.80;99.90
5930;DHT22;2990;48.746;9.236;2023-05-10T00:39:22;12.40;99.90
5930;DHT22;2990;48.746;9.236;2023-05-10T00:41:48;12.40;99.90
5930;DHT22;2990;48.746;9.236;2023-05-10T00:44:19;12.40;99.90
5930;DHT22;2990;48.746;9.236;2023-05-10T00:49:42;12.20;99.90
5930;DHT22;2990;48.746;9.236;2023-05-10T00:52:26;12.30;99.90
5930;DHT22;2990;48.746;9.236;2023-05-10T00:55:16;12.20;99.90
5930;DHT22;2990;48.746;9.236;2023-05-10T00:57:46;12.10;99.90
5930;DHT22;2990;48.746;9.236;2023-05-10T01:00:15;12.20;99.90
5930;DHT22;2990;48.746;9.236;2023-05-10T01:02:47;12.00;99.90
5930;DHT22;2990;48.746;9.236;2023-05-10T01:05:15;12.10;99.90
5930;DHT22;2990;48.746;9.236;2023-05-10T01:07:59;11.90;99.90
5930;DHT22;2990;48.746;9.236;2023-05-10T01:10:31;12.00;99.90
5930;DHT22;2990;48.746;9.236;2023-05-10T01:12:59;12.00;99.90
5930;DHT22;2990;48.746;9.236;2023-05-10T01:15:36;12.00;99.90
5930;DHT22;2990;48.746;9.236;2023-05-10T01:18:15;12.00;99.90
5930;DHT22;2990;48.746;9.236;2023-05-10T01:21:07;11.90;99.90
5930;DHT22;2990;48.746;9.236;2023-05-10T01:30:08;11.80;99.90
5930;DHT22;2990;48.746;9.236;2023-05-10T01:36:13;11.80;99.90
5930;DHT22;2990;48.746;9.236;2023-05-10T01:39:23;11.80;99.90
5930;DHT22;2990;48.746;9.236;2023-05-10T01:42:17;11.80;99.90
5930;DHT22;2990;48.746;9.236;2023-05-10T01:50:58;11.80;99.90
5930;DHT22;2990;48.746;9.236;2023-05-10T01:53:31;11.90;99.90
5930;DHT22;2990;48.746;9.236;2023-05-10T01:56:10;12.30;99.90
5930;DHT22;2990;48.746;9.236;2023-05-10T01:59:13;11.80;99.90
5930;DHT22;2990;48.746;9.236;2023-05-10T02:01:41;11.80;99.90
5930;DHT22;2990;48.746;9.236;2023-05-10T02:04:16;12.00;99.90
5930;DHT22;2990;48.746;9.236;2023-05-10T02:06:43;11.90;99.90
5930;DHT22;2990;48.746;9.236;2023-05-10T02:09:21;11.80;99.90
5930;DHT22;2990;48.746;9.236;2023-05-10T02:11:50;11.90;99.90
5930;DHT22;2990;48.746;9.236;2023-05-10T02:14:18;11.80;99.90
5930;DHT22;2990;48.746;9.236;2023-05-10T02:17:09;11.90;99.90
5930;DHT22;2990;48.746;9.236;2023-05-10T02:19:40;11.80;99.90
5930;DHT22;2990;48.746;9.236;2023-05-10T02:22:25;11.80;99.90
5930;DHT22;2990;48.746;9.236;2023-05-10T02:25:00;11.80;99.90
5930;DHT22;2990;48.746;9.236;2023-05-10T02:27:29;12.00;99.90
5930;DHT22;2990;48.746;9.236;2023-05-10T02:30:12;11.80;99.90
5930;DHT22;2990;48.746;9.236;2023-05-10T02:32:44;11.70;99.90
5930;DHT22;2990;48.746;9.236;2023-05-10T02:35:13;11.70;99.90
5930;DHT22;2990;48.746;9.236;2023-05-10T02:37:49;11.80;99.90
5930;DHT22;2990;48.746;9.236;2023-05-10T02:40:18;11.60;99.90
5930;DHT22;2990;48.746;9.236;2023-05-10T02:42:48;11.60;99.90
5930;DHT22;2990;48.746;9.236;2023-05-10T02:45:35;11.80;99.90
5930;DHT22;2990;48.746;9.236;2023-05-10T02:48:01;11.80;99.90
5930;DHT22;2990;48.746;9.236;2023-05-10T02:53:31;11.80;99.90
5930;DHT22;2990;48.746;9.236;2023-05-10T02:56:14;11.80;99.90
5930;DHT22;2990;48.746;9.236;2023-05-10T02:58:43;11.70;99.90
5930;DHT22;2990;48.746;9.236;2023-05-10T03:01:19;12.00;99.90
5930;DHT22;2990;48.746;9.236;2023-05-10T03:03:51;11.80;99.90
5930;DHT22;2990;48.746;9.236;2023-05-10T03:06:27;11.80;99.90
5930;DHT22;2990;48.746;9.236;2023-05-10T03:08:54;11.70;99.90
5930;DHT22;2990;48.746;9.236;2023-05-10T03:11:39;11.80;99.90
5930;DHT22;2990;48.746;9.236;2023-05-10T03:19:57;11.80;99.90
5930;DHT22;2990;48.746;9.236;2023-05-10T03:31:22;11.80;99.90
5930;DHT22;2990;48.746;9.236;2023-05-10T03:53:45;11.60;99.90
5930;DHT22;2990;48.746;9.236;2023-05-10T04:06:13;11.70;99.90
5930;DHT22;2990;48.746;9.236;2023-05-10T04:11:20;11.60;99.90
5930;DHT22;2990;48.746;9.236;2023-05-10T04:13:47;11.80;99.90
5930;DHT22;2990;48.746;9.236;2023-05-10T04:16:15;11.60;99.90
5930;DHT22;2990;48.746;9.236;2023-05-10T04:18:50;11.60;99.90
5930;DHT22;2990;48.746;9.236;2023-05-10T04:21:15;11.60;99.90
5930;DHT22;2990;48.746;9.236;2023-05-10T04:23:41;11.80;99.90
5930;DHT22;2990;48.746;9.236;2023-05-10T04:26:18;11.70;99.90
5930;DHT22;2990;48.746;9.236;2023-05-10T04:28:49;11.60;99.90
5930;DHT22;2990;48.746;9.236;2023-05-10T04:31:17;11.60;99.90
5930;DHT22;2990;48.746;9.236;2023-05-10T04:33:45;11.70;99.90
5930;DHT22;2990;48.746;9.236;2023-05-10T04:36:20;11.50;99.90
5930;DHT22;2990;48.746;9.236;2023-05-10T04:38:48;11.60;99.90
5930;DHT22;2990;48.746;9.236;2023-05-10T04:41:20;11.60;99.90
5930;DHT22;2990;48.746;9.236;2023-05-10T04:43:55;11.70;99.90
5930;DHT22;2990;48.746;9.236;2023-05-10T04:46:24;11.70;99.90
5930;DHT22;2990;48.746;9.236;2023-05-10T04:48:52;11.70;99.90
5930;DHT22;2990;48.746;9.236;2023-05-10T04:51:23;11.70;99.90
5930;DHT22;2990;48.746;9.236;2023-05-10T04:53:54;11.90;99.90
5930;DHT22;2990;48.746;9.236;2023-05-10T04:56:20;11.70;99.90
5930;DHT22;2990;48.746;9.236;2023-05-10T04:58:52;11.70;99.90
5930;DHT22;2990;48.746;9.236;2023-05-10T05:01:20;11.70;99.90
5930;DHT22;2990;48.746;9.236;2023-05-10T05:03:56;11.70;99.90
5930;DHT22;2990;48.746;9.236;2023-05-10T05:06:35;11.70;99.90
5930;DHT22;2990;48.746;9.236;2023-05-10T05:09:06;11.70;99.90
5930;DHT22;2990;48.746;9.236;2023-05-10T05:11:38;11.80;99.90
5930;DHT22;2990;48.746;9.236;2023-05-10T05:14:15;11.80;99.90
5930;DHT22;2990;48.746;9.236;2023-05-10T05:16:48;11.90;99.90
5930;DHT22;2990;48.746;9.236;2023-05-10T05:19:25;11.90;99.90
5930;DHT22;2990;48.746;9.236;2023-05-10T05:21:51;12.20;99.90
5930;DHT22;2990;48.746;9.236;2023-05-10T05:24:19;12.10;99.90
5930;DHT22;2990;48.746;9.236;2023-05-10T05:26:50;12.10;99.90
5930;DHT22;2990;48.746;9.236;2023-05-10T05:29:26;12.00;99.90
5930;DHT22;2990;48.746;9.236;2023-05-10T05:31:54;12.10;99.90
5930;DHT22;2990;48.746;9.236;2023-05-10T05:34:27;12.20;99.90
5930;DHT22;2990;48.746;9.236;2023-05-10T05:36:55;12.10;99.90
5930;DHT22;2990;48.746;9.236;2023-05-10T05:39:24;12.30;99.90
5930;DHT22;2990;48.746;9.236;2023-05-10T05:41:53;12.20;99.90
5930;DHT22;2990;48.746;9.236;2023-05-10T05:44:28;12.20;99.90
5930;DHT22;2990;48.746;9.236;2023-05-10T05:46:56;12.40;99.90
5930;DHT22;2990;48.746;9.236;2023-05-10T05:49:28;12.20;99.90
5930;DHT22;2990;48.746;9.236;2023-05-10T05:52:04;12.30;99.90
5930;DHT22;2990;48.746;9.236;2023-05-10T05:54:36;12.40;99.90
5930;DHT22;2990;48.746;9.236;2023-05-10T05:57:19;12.40;99.90
5930;DHT22;2990;48.746;9.236;2023-05-10T05:59:45;12.50;99.90
5930;DHT22;2990;48.746;9.236;2023-05-10T06:02:34;12.40;99.90
5930;DHT22;2990;48.746;9.236;2023-05-10T06:05:00;12.40;99.90
5930;DHT22;2990;48.746;9.236;2023-05-10T06:07:53;12.40;99.90
5930;DHT22;2990;48.746;9.236;2023-05-10T06:10:48;12.60;99.90
5930;DHT22;2990;48.746;9.236;2023-05-10T06:13:24;12.60;99.90
5930;DHT22;2990;48.746;9.236;2023-05-10T06:16:08;12.60;99.90
5930;DHT22;2990;48.746;9.236;2023-05-10T06:18:37;12.60;99.90
5930;DHT22;2990;48.746;9.236;2023-05-10T06:21:03;12.60;99.90
5930;DHT22;2990;48.746;9.236;2023-05-10T06:23:29;12.60;99.90
5930;DHT22;2990;48.746;9.236;2023-05-10T06:25:57;12.70;99.90
5930;DHT22;2990;48.746;9.236;2023-05-10T06:28:23;12.70;99.90
5930;DHT22;2990;48.746;9.236;2023-05-10T06:30:57;12.70;99.90
5930;DHT22;2990;48.746;9.236;2023-05-10T06:33:34;12.90;99.90
5930;DHT22;2990;48.746;9.236;2023-05-10T06:36:06;12.70;99.90
5930;DHT22;2990;48.746;9.236;2023-05-10T06:38:42;12.70;99.90
5930;DHT22;2990;48.746;9.236;2023-05-10T06:41:17;12.70;99.90
5930;DHT22;2990;48.746;9.236;2023-05-10T06:43:54;12.80;99.90
5930;DHT22;2990;48.746;9.236;2023-05-10T06:46:20;12.70;99.90
5930;DHT22;2990;48.746;9.236;2023-05-10T06:48:55;12.70;99.90
5930;DHT22;2990;48.746;9.236;2023-05-10T06:51:37;12.60;99.90
5930;DHT22;2990;48.746;9.236;2023-05-10T06:54:06;12.70;99.90
5930;DHT22;2990;48.746;9.236;2023-05-10T06:56:35;12.90;99.90
5930;DHT22;2990;48.746;9.236;2023-05-10T06:59:10;12.70;99.90
5930;DHT22;2990;48.746;9.236;2023-05-10T07:01:44;12.70;99.90
5930;DHT22;2990;48.746;9.236;2023-05-10T07:04:17;12.80;99.90
5930;DHT22;2990;48.746;9.236;2023-05-10T07:06:46;12.60;99.90
5930;DHT22;2990;48.746;9.236;2023-05-10T07:09:30;12.60;99.90
5930;DHT22;2990;48.746;9.236;2023-05-10T07:12:04;12.70;99.90
5930;DHT22;2990;48.746;9.236;2023-05-10T07:14:53;12.60;99.90
5930;DHT22;2990;48.746;9.236;2023-05-10T07:17:18;12.60;99.90
5930;DHT22;2990;48.746;9.236;2023-05-10T07:19:47;12.60;99.90
5930;DHT22;2990;48.746;9.236;2023-05-10T07:22:15;12.70;99.90
5930;DHT22;2990;48.746;9.236;2023-05-10T07:24:42;12.90;99.90
5930;DHT22;2990;48.746;9.236;2023-05-10T07:27:11;13.00;99.90
5930;DHT22;2990;48.746;9.236;2023-05-10T07:29:42;13.10;99.90
5930;DHT22;2990;48.746;9.236;2023-05-10T07:32:11;13.20;99.90
5930;DHT22;2990;48.746;9.236;2023-05-10T07:34:46;13.30;99.90
5930;DHT22;2990;48.746;9.236;2023-05-10T07:37:29;13.30;99.90
5930;DHT22;2990;48.746;9.236;2023-05-10T07:39:58;13.40;99.90
5930;DHT22;2990;48.746;9.236;2023-05-10T07:42:36;13.40;99.90
5930;DHT22;2990;48.746;9.236;2023-05-10T07:45:05;13.60;99.90
5930;DHT22;2990;48.746;9.236;2023-05-10T07:47:42;13.60;99.90
5930;DHT22;2990;48.746;9.236;2023-05-10T07:50:14;13.40;99.90
5930;DHT22;2990;48.746;9.236;2023-05-10T07:52:40;13.60;99.90
5930;DHT22;2990;48.746;9.236;2023-05-10T07:55:07;13.60;99.90
5930;DHT22;2990;48.746;9.236;2023-05-10T07:57:36;13.70;99.90
5930;DHT22;2990;48.746;9.236;2023-05-10T08:00:06;13.70;99.90
5930;DHT22;2990;48.746;9.236;2023-05-10T08:02:57;13.70;99.90
5930;DHT22;2990;48.746;9.236;2023-05-10T08:05:41;13.70;99.90
5930;DHT22;2990;48.746;9.236;2023-05-10T08:08:17;13.80;99.90
5930;DHT22;2990;48.746;9.236;2023-05-10T08:11:00;13.80;99.90
5930;DHT22;2990;48.746;9.236;2023-05-10T08:13:32;13.80;96.30
5930;DHT22;2990;48.746;9.236;2023-05-10T08:16:04;13.80;18.20
5930;DHT22;2990;48.746;9.236;2023-05-10T08:18:40;13.80;1.00
5930;DHT22;2990;48.746;9.236;2023-05-10T08:21:20;13.80;1.00
5930;DHT22;2990;48.746;9.236;2023-05-10T08:23:53;13.90;1.00
5930;DHT22;2990;48.746;9.236;2023-05-10T08:26:22;13.90;1.00
5930;DHT22;2990;48.746;9.236;2023-05-10T08:28:53;13.90;1.00
5930;DHT22;2990;48.746;9.236;2023-05-10T08:31:41;14.00;1.00
5930;DHT22;2990;48.746;9.236;2023-05-10T08:34:10;14.00;1.00
5930;DHT22;2990;48.746;9.236;2023-05-10T08:36:38;14.00;1.00
5930;DHT22;2990;48.746;9.236;2023-05-10T08:39:04;14.00;1.00
5930;DHT22;2990;48.746;9.236;2023-05-10T08:41:38;14.00;1.00
5930;DHT22;2990;48.746;9.236;2023-05-10T08:44:19;14.10;1.00
5930;DHT22;2990;48.746;9.236;2023-05-10T08:47:06;14.10;1.00
5930;DHT22;2990;48.746;9.236;2023-05-10T08:49:40;14.20;1.00
5930;DHT22;2990;48.746;9.236;2023-05-10T08:52:16;14.10;1.00
5930;DHT22;2990;48.746;9.236;2023-05-10T08:54:52;14.20;99.90
5930;DHT22;2990;48.746;9.236;2023-05-10T08:57:19;14.30;1.00
5930;DHT22;2990;48.746;9.236;2023-05-10T08:59:55;14.40;63.00
5930;DHT22;2990;48.746;9.236;2023-05-10T09:02:50;14.30;99.90
5930;DHT22;2990;48.746;9.236;2023-05-10T09:05:35;14.40;76.70
5930;DHT22;2990;48.746;9.236;2023-05-10T09:08:13;14.40;99.90
5930;DHT22;2990;48.746;9.236;2023-05-10T09:10:51;14.50;1.00
5930;DHT22;2990;48.746;9.236;2023-05-10T09:13:24;14.70;1.00
5930;DHT22;2990;48.746;9.236;2023-05-10T09:15:55;14.40;99.90
5930;DHT22;2990;48.746;9.236;2023-05-10T09:18:23;14.60;1.00
5930;DHT22;2990;48.746;9.236;2023-05-10T09:20:58;14.60;99.90
5930;DHT22;2990;48.746;9.236;2023-05-10T09:23:24;14.50;44.80
5930;DHT22;2990;48.746;9.236;2023-05-10T09:26:07;14.50;1.00
5930;DHT22;2990;48.746;9.236;2023-05-10T09:29:14;14.50;1.00
5930;DHT22;2990;48.746;9.236;2023-05-10T09:31:52;14.50;99.90
5930;DHT22;2990;48.746;9.236;2023-05-10T09:34:37;14.40;1.00
5930;DHT22;2990;48.746;9.236;2023-05-10T09:37:05;14.30;99.90
5930;DHT22;2990;48.746;9.236;2023-05-10T09:39:38;13.80;1.00
5930;DHT22;2990;48.746;9.236;2023-05-10T09:42:13;13.40;1.00
5930;DHT22;2990;48.746;9.236;2023-05-10T09:44:47;13.20;69.30
5930;DHT22;2990;48.746;9.236;2023-05-10T09:47:19;13.00;99.90
5930;DHT22;2990;48.746;9.236;2023-05-10T09:50:00;12.90;99.90
5930;DHT22;2990;48.746;9.236;2023-05-10T09:52:50;13.00;99.90
5930;DHT22;2990;48.746;9.236;2023-05-10T09:55:23;13.10;99.90
5930;DHT22;2990;48.746;9.236;2023-05-10T09:57:58;13.20;99.90
5930;DHT22;2990;48.746;9.236;2023-05-10T10:00:28;13.20;99.90
5930;DHT22;2990;48.746;9.236;2023-05-10T10:03:00;13.30;99.90
5930;DHT22;2990;48.746;9.236;2023-05-10T10:05:35;13.30;99.90
5930;DHT22;2990;48.746;9.236;2023-05-10T10:08:14;13.40;99.90
5930;DHT22;2990;48.746;9.236;2023-05-10T10:10:57;13.30;99.90
5930;DHT22;2990;48.746;9.236;2023-05-10T10:16:36;13.90;99.90
5930;DHT22;2990;48.746;9.236;2023-05-10T10:19:19;14.30;99.90
5930;DHT22;2990;48.746;9.236;2023-05-10T10:21:51;14.50;57.60
5930;DHT22;2990;48.746;9.236;2023-05-10T10:24:30;14.80;1.00
5930;DHT22;2990;48.746;9.236;2023-05-10T10:27:23;14.90;1.00
5930;DHT22;2990;48.746;9.236;2023-05-10T10:30:01;15.00;1.00
5930;DHT22;2990;48.746;9.236;2023-05-10T10:35:34;15.10;1.00
5930;DHT22;2990;48.746;9.236;2023-05-10T10:38:03;15.30;1.00
5930;DHT22;2990;48.746;9.236;2023-05-10T10:40:34;15.30;1.00
5930;DHT22;2990;48.746;9.236;2023-05-10T10:43:28;15.30;1.00
5930;DHT22;2990;48.746;9.236;2023-05-10T10:49:26;15.10;99.90
5930;DHT22;2990;48.746;9.236;2023-05-10T10:54:41;15.00;1.00
5930;DHT22;2990;48.746;9.236;2023-05-10T10:57:21;15.00;1.00
5930;DHT22;2990;48.746;9.236;2023-05-10T10:59:51;14.90;1.00
5930;DHT22;2990;48.746;9.236;2023-05-10T11:02:43;14.80;99.90
5930;DHT22;2990;48.746;9.236;2023-05-10T11:13:47;14.40;1.00
5930;DHT22;2990;48.746;9.236;2023-05-10T11:16:23;14.30;99.90
5930;DHT22;2990;48.746;9.236;2023-05-10T11:19:07;14.10;99.90
5930;DHT22;2990;48.746;9.236;2023-05-10T11:24:36;13.90;1.00
5930;DHT22;2990;48.746;9.236;2023-05-10T11:27:11;13.90;1.00
5930;DHT22;2990;48.746;9.236;2023-05-10T11:29:40;14.10;1.00
5930;DHT22;2990;48.746;9.236;2023-05-10T11:32:29;14.10;1.00
5930;DHT22;2990;48.746;9.236;2023-05-10T11:35:13;14.10;99.90
5930;DHT22;2990;48.746;9.236;2023-05-10T11:37:48;14.00;1.00
5930;DHT22;2990;48.746;9.236;2023-05-10T11:40:21;14.00;1.00
5930;DHT22;2990;48.746;9.236;2023-05-10T11:43:13;13.90;1.00
5930;DHT22;2990;48.746;9.236;2023-05-10T11:46:13;13.90;1.00
5930;DHT22;2990;48.746;9.236;2023-05-10T11:48:51;13.70;1.00
5930;DHT22;2990;48.746;9.236;2023-05-10T11:51:26;13.70;1.00
5930;DHT22;2990;48.746;9.236;2023-05-10T11:54:02;13.70;1.00
5930;DHT22;2990;48.746;9.236;2023-05-10T11:56:42;13.70;99.90
5930;DHT22;2990;48.746;9.236;2023-05-10T11:59:17;13.60;99.90
5930;DHT22;2990;48.746;9.236;2023-05-10T12:01:59;13.50;1.00
5930;DHT22;2990;48.746;9.236;2023-05-10T12:04:59;13.30;1.00
5930;DHT22;2990;48.746;9.236;2023-05-10T12:07:41;13.30;99.90
5930;DHT22;2990;48.746;9.236;2023-05-10T12:10:10;13.10;99.90
5930;DHT22;2990;48.746;9.236;2023-05-10T12:13:14;13.10;1.00
5930;DHT22;2990;48.746;9.236;2023-05-10T12:16:33;13.10;99.90
5930;DHT22;2990;48.746;9.236;2023-05-10T12:19:02;13.10;1.00
5930;DHT22;2990;48.746;9.236;2023-05-10T12:21:47;12.90;1.00
5930;DHT22;2990;48.746;9.236;2023-05-10T12:24:27;13.20;99.90
5930;DHT22;2990;48.746;9.236;2023-05-10T12:26:58;13.30;1.00
5930;DHT22;2990;48.746;9.236;2023-05-10T12:29:24;13.40;1.00
5930;DHT22;2990;48.746;9.236;2023-05-10T12:34:37;13.70;99.90
5930;DHT22;2990;48.746;9.236;2023-05-10T12:37:07;13.90;74.20
5930;DHT22;2990;48.746;9.236;2023-05-10T12:39:55;13.90;1.00
5930;DHT22;2990;48.746;9.236;2023-05-10T12:42:48;14.10;99.90
5930;DHT22;2990;48.746;9.236;2023-05-10T12:45:24;14.20;99.90
5930;DHT22;2990;48.746;9.236;2023-05-10T12:48:14;14.30;99.90
5930;DHT22;2990;48.746;9.236;2023-05-10T13:05:05;13.90;1.00
5930;DHT22;2990;48.746;9.236;2023-05-10T13:08:03;13.90;1.00
5930;DHT22;2990;48.746;9.236;2023-05-10T13:10:51;13.90;99.90
5930;DHT22;2990;48.746;9.236;2023-05-10T13:24:03;13.70;99.90
5930;DHT22;2990;48.746;9.236;2023-05-10T13:26:44;13.80;1.00
5930;DHT22;2990;48.746;9.236;2023-05-10T13:29:16;14.10;1.00
5930;DHT22;2990;48.746;9.236;2023-05-10T13:32:07;14.10;99.90
5930;DHT22;2990;48.746;9.236;2023-05-10T13:38:06;14.40;1.00
5930;DHT22;2990;48.746;9.236;2023-05-10T13:40:46;14.70;99.90
5930;DHT22;2990;48.746;9.236;2023-05-10T13:43:25;14.70;1.00
5930;DHT22;2990;48.746;9.236;2023-05-10T13:45:51;14.70;1.00
5930;DHT22;2990;48.746;9.236;2023-05-10T13:48:26;14.80;99.90
5930;DHT22;2990;48.746;9.236;2023-05-10T13:54:19;14.80;1.00
5930;DHT22;2990;48.746;9.236;2023-05-10T13:56:48;14.80;1.00
5930;DHT22;2990;48.746;9.236;2023-05-10T13:59:21;14.80;1.00
5930;DHT22;2990;48.746;9.236;2023-05-10T14:01:47;14.90;1.00
5930;DHT22;2990;48.746;9.236;2023-05-10T14:04:23;15.00;99.90
5930;DHT22;2990;48.746;9.236;2023-05-10T14:06:49;15.00;1.00
5930;DHT22;2990;48.746;9.236;2023-05-10T14:09:23;15.00;99.90
5930;DHT22;2990;48.746;9.236;2023-05-10T14:12:04;15.10;1.00
5930;DHT22;2990;48.746;9.236;2023-05-10T14:14:42;15.00;1.00
5930;DHT22;2990;48.746;9.236;2023-05-10T14:20:05;15.10;1.00
5930;DHT22;2990;48.746;9.236;2023-05-10T14:22:43;15.20;1.00
5930;DHT22;2990;48.746;9.236;2023-05-10T14:25:09;15.10;1.00
5930;DHT22;2990;48.746;9.236;2023-05-10T14:27:35;15.10;1.00
5930;DHT22;2990;48.746;9.236;2023-05-10T14:50:58;15.30;1.00
5930;DHT22;2990;48.746;9.236;2023-05-10T14:53:33;15.30;1.00
5930;DHT22;2990;48.746;9.236;2023-05-10T14:56:06;15.30;1.00
5930;DHT22;2990;48.746;9.236;2023-05-10T15:23:06;15.10;1.00
5930;DHT22;2990;48.746;9.236;2023-05-10T15:29:04;15.00;99.90
5930;DHT22;2990;48.746;9.236;2023-05-10T15:31:32;15.20;1.00
5930;DHT22;2990;48.746;9.236;2023-05-10T15:34:25;15.10;1.00
5930;DHT22;2990;48.746;9.236;2023-05-10T16:27:12;15.10;1.00
5930;DHT22;2990;48.746;9.236;2023-05-10T16:29:43;15.00;1.00
5930;DHT22;2990;48.746;9.236;2023-05-10T16:32:08;15.00;1.00
5930;DHT22;2990;48.746;9.236;2023-05-10T16:34:34;15.00;99.90
5930;DHT22;2990;48.746;9.236;2023-05-10T16:37:06;14.90;99.90
5930;DHT22;2990;48.746;9.236;2023-05-10T16:47:17;14.80;99.90
5930;DHT22;2990;48.746;9.236;2023-05-10T16:49:27;14.70;99.90
5930;DHT22;2990;48.746;9.236;2023-05-10T16:52:04;14.70;99.90
5930;DHT22;2990;48.746;9.236;2023-05-10T16:54:33;14.50;99.90
5930;DHT22;2990;48.746;9.236;2023-05-10T16:56:59;14.60;99.90
5930;DHT22;2990;48.746;9.236;2023-05-10T17:14:07;14.20;1.00
5930;DHT22;2990;48.746;9.236;2023-05-10T17:16:32;14.20;1.00
5930;DHT22;2990;48.746;9.236;2023-05-10T17:21:31;14.10;1.00
5930;DHT22;2990;48.746;9.236;2023-05-10T17:23:57;14.10;1.00
5930;DHT22;2990;48.746;9.236;2023-05-10T17:27:09;14.00;99.90
5930;DHT22;2990;48.746;9.236;2023-05-10T17:29:34;14.00;1.00
5930;DHT22;2990;48.746;9.236;2023-05-10T17:32:03;13.90;1.00
5930;DHT22;2990;48.746;9.236;2023-05-10T17:34:29;13.90;1.00
5930;DHT22;2990;48.746;9.236;2023-05-10T17:59:26;13.20;1.00
5930;DHT22;2990;48.746;9.236;2023-05-10T18:02:15;13.00;23.50
5930;DHT22;2990;48.746;9.236;2023-05-10T20:32:40;12.00;1.00
5930;DHT22;2990;48.746;9.236;2023-05-10T20:35:32;12.10;1.00
5930;DHT22;2990;48.746;9.236;2023-05-10T20:38:18;11.90;1.00
5930;DHT22;2990;48.746;9.236;2023-05-10T21:04:41;11.80;1.00
5930;DHT22;2990;48.746;9.236;2023-05-10T21:07:18;11.80;1.00
5930;DHT22;2990;48.746;9.236;2023-05-10T21:09:55;11.80;1.00
5930;DHT22;2990;48.746;9.236;2023-05-10T21:12:27;11.80;1.00
5930;DHT22;2990;48.746;9.236;2023-05-10T21:17:53;11.70;1.00
5930;DHT22;2990;48.746;9.236;2023-05-10T21:20:21;11.70;1.00
5930;DHT22;2990;48.746;9.236;2023-05-10T21:22:57;11.70;1.00
5930;DHT22;2990;48.746;9.236;2023-05-10T21:25:25;11.70;99.90
5930;DHT22;2990;48.746;9.236;2023-05-10T21:31:15;11.60;99.90
5930;DHT22;2990;48.746;9.236;2023-05-10T21:33:46;11.70;99.90
5930;DHT22;2990;48.746;9.236;2023-05-10T21:36:18;11.60;99.90
5930;DHT22;2990;48.746;9.236;2023-05-10T21:38:44;11.60;99.90
5930;DHT22;2990;48.746;9.236;2023-05-10T21:41:19;11.70;99.90
5930;DHT22;2990;48.746;9.236;2023-05-10T21:44:01;11.60;99.90
5930;DHT22;2990;48.746;9.236;2023-05-10T21:46:30;11.60;99.90
5930;DHT22;2990;48.746;9.236;2023-05-10T21:49:21;11.50;99.90
5930;DHT22;2990;48.746;9.236;2023-05-10T21:51:47;11.50;1.00
5930;DHT22;2990;48.746;9.236;2023-05-10T21:54:15;11.50;1.00
5930;DHT22;2990;48.746;9.236;2023-05-10T21:59:25;11.50;1.00
5930;DHT22;2990;48.746;9.236;2023-05-10T22:01:54;11.50;1.00
5930;DHT22;2990;48.746;9.236;2023-05-10T22:04:27;11.40;1.00
5930;DHT22;2990;48.746;9.236;2023-05-10T22:06:56;11.40;1.00
5930;DHT22;2990;48.746;9.236;2023-05-10T22:09:25;11.40;1.00
5930;DHT22;2990;48.746;9.236;2023-05-10T22:11:54;11.60;1.00
5930;DHT22;2990;48.746;9.236;2023-05-10T22:14:26;11.60;1.00
5930;DHT22;2990;48.746;9.236;2023-05-10T22:16:52;11.40;1.00
5930;DHT22;2990;48.746;9.236;2023-05-10T22:19:18;11.30;1.00
5930;DHT22;2990;48.746;9.236;2023-05-10T22:21:54;11.40;1.00
5930;DHT22;2990;48.746;9.236;2023-05-10T22:27:13;11.40;1.00
5930;DHT22;2990;48.746;9.236;2023-05-10T22:29:39;11.30;1.00
5930;DHT22;2990;48.746;9.236;2023-05-10T22:32:18;11.20;1.00
5930;DHT22;2990;48.746;9.236;2023-05-10T22:34:47;11.30;1.00
5930;DHT22;2990;48.746;9.236;2023-05-10T22:37:21;11.40;1.00
5930;DHT22;2990;48.746;9.236;2023-05-10T22:39:50;11.30;1.00
5930;DHT22;2990;48.746;9.236;2023-05-10T22:42:27;11.30;1.00
5930;DHT22;2990;48.746;9.236;2023-05-10T22:44:57;11.40;1.00
5930;DHT22;2990;48.746;9.236;2023-05-10T22:47:26;11.20;1.00
5930;DHT22;2990;48.746;9.236;2023-05-10T22:52:30;11.20;1.00
5930;DHT22;2990;48.746;9.236;2023-05-10T22:55:15;11.40;1.00
5930;DHT22;2990;48.746;9.236;2023-05-10T22:57:54;11.20;1.00
5930;DHT22;2990;48.746;9.236;2023-05-10T23:00:23;11.20;1.00
5930;DHT22;2990;48.746;9.236;2023-05-10T23:02:52;11.20;1.00
5930;DHT22;2990;48.746;9.236;2023-05-10T23:05:23;11.30;1.00
5930;DHT22;2990;48.746;9.236;2023-05-10T23:07:52;11.10;1.00
5930;DHT22;2990;48.746;9.236;2023-05-10T23:10:19;11.10;1.00
5930;DHT22;2990;48.746;9.236;2023-05-10T23:12:47;11.10;1.00
5930;DHT22;2990;48.746;9.236;2023-05-10T23:15:23;11.10;1.00
5930;DHT22;2990;48.746;9.236;2023-05-10T23:18:11;11.10;1.00
5930;DHT22;2990;48.746;9.236;2023-05-10T23:20:43;11.00;1.00
5930;DHT22;2990;48.746;9.236;2023-05-10T23:23:18;10.90;1.00
5930;DHT22;2990;48.746;9.236;2023-05-10T23:25:47;11.00;1.00
5930;DHT22;2990;48.746;9.236;2023-05-10T23:28:16;10.90;1.00
5930;DHT22;2990;48.746;9.236;2023-05-10T23:30:53;10.90;1.00
5930;DHT22;2990;48.746;9.236;2023-05-10T23:33:25;10.90;1.00
5930;DHT22;2990;48.746;9.236;2023-05-10T23:35:54;10.90;1.00
5930;DHT22;2990;48.746;9.236;2023-05-10T23:38:40;11.00;1.00
5930;DHT22;2990;48.746;9.236;2023-05-10T23:41:15;11.00;1.00
5930;DHT22;2990;48.746;9.236;2023-05-10T23:43:43;10.90;1.00
5930;DHT22;2990;48.746;9.236;2023-05-10T23:46:09;11.10;1.00
5930;DHT22;2990;48.746;9.236;2023-05-10T23:48:35;10.90;1.00
5930;DHT22;2990;48.746;9.236;2023-05-10T23:51:04;10.80;1.00
5930;DHT22;2990;48.746;9.236;2023-05-10T23:53:32;10.90;1.00
5930;DHT22;2990;48.746;9.236;2023-05-10T23:56:04;11.10;1.00
5930;DHT22;2990;48.746;9.236;2023-05-10T23:58:38;10.90;1.00
